createdAt,value
2018-10-12T05:09:38.475Z,12.77
2018-10-12T05:12:07.756Z,12.30
2018-10-12T05:14:36.035Z,13.40
2018-10-12T05:43:04.307Z,13.20
2018-10-12T05:45:32.472Z,13.87
2018-10-12T05:48:12.209Z,14.37
2018-10-12T05:50:40.388Z,13.53
2018-10-12T05:53:08.658Z,14.20
2018-10-12T05:55:36.842Z,13.80
2018-10-12T05:58:05.402Z,13.90
2018-10-12T06:00:33.573Z,13.63
2018-10-12T06:03:01.763Z,14.73
2018-10-12T07:56:19.330Z,10.37
2018-10-12T07:58:47.504Z,11.60
2018-10-12T08:01:16.272Z,10.80
2018-10-12T08:03:44.447Z,10.23
2018-10-12T08:06:12.649Z,10.43
2018-10-12T08:08:40.796Z,9.73
2018-10-12T08:11:09.224Z,10.63
2018-10-12T08:13:37.406Z,10.90
2018-10-12T08:16:05.564Z,9.97
2018-10-12T08:18:33.727Z,10.43
2018-10-12T08:21:01.894Z,10.47
2018-10-12T08:23:30.071Z,9.40
2018-10-12T08:25:58.247Z,9.97
2018-10-12T08:28:26.427Z,9.63
2018-10-12T08:30:54.587Z,9.60
2018-10-12T08:33:22.756Z,9.27
2018-10-12T08:35:50.963Z,10.03
2018-10-12T08:38:19.166Z,9.73
2018-10-12T08:40:47.323Z,10.03
2018-10-12T08:43:15.528Z,9.20
2018-10-12T08:45:43.691Z,9.00
2018-10-12T08:48:11.980Z,9.80
2018-10-12T08:50:40.155Z,10.47
2018-10-12T08:53:08.326Z,9.73
2018-10-12T08:55:36.606Z,9.67
2018-10-12T08:58:04.683Z,9.30
2018-10-12T09:00:32.855Z,9.40
2018-10-12T09:03:01.074Z,9.30
2018-10-12T09:05:29.184Z,8.93
2018-10-12T09:07:57.468Z,9.10
2018-10-12T09:10:25.668Z,8.40
2018-10-12T09:12:53.835Z,8.60
2018-10-12T09:15:21.982Z,8.27
2018-10-12T09:17:50.142Z,7.67
2018-10-12T09:20:18.406Z,7.43
2018-10-12T09:22:46.482Z,6.93
2018-10-12T09:25:14.656Z,7.40
2018-10-12T09:27:42.835Z,7.10
2018-10-12T09:30:11.027Z,7.13
2018-10-12T09:32:39.222Z,6.70
2018-10-12T09:35:07.443Z,6.53
2018-10-12T09:37:35.616Z,6.10
2018-10-12T09:40:03.807Z,7.03
2018-10-12T09:42:31.973Z,6.40
2018-10-12T09:45:00.146Z,5.83
2018-10-12T09:47:28.327Z,6.10
2018-10-12T09:49:56.851Z,5.73
2018-10-12T09:52:25.027Z,5.63
2018-10-12T09:54:53.172Z,5.67
2018-10-12T09:57:30.515Z,5.43
2018-10-12T09:59:58.751Z,5.80
2018-10-12T10:02:32.390Z,5.70
2018-10-12T10:05:05.899Z,5.63
2018-10-12T10:07:34.144Z,5.67
2018-10-12T10:10:02.255Z,5.60
2018-10-12T10:12:30.410Z,5.43
2018-10-12T10:14:58.583Z,5.30
2018-10-12T10:17:26.753Z,5.50
2018-10-12T10:19:54.911Z,4.85
2018-10-12T10:22:23.120Z,5.53
2018-10-12T10:24:51.276Z,5.40
2018-10-12T10:27:19.420Z,4.72
2018-10-12T10:29:47.630Z,4.60
2018-10-12T10:32:15.863Z,4.28
2018-10-12T10:34:43.968Z,4.10
2018-10-12T10:37:12.143Z,4.42
2018-10-12T10:39:40.316Z,3.70
2018-10-12T10:42:08.480Z,3.45
2018-10-12T10:44:36.712Z,3.22
2018-10-12T10:47:04.875Z,2.77
2018-10-12T10:49:33.039Z,1.82
2018-10-12T10:52:01.208Z,2.02
2018-10-12T10:54:29.719Z,2.00
2018-10-12T10:57:02.996Z,2.05
2018-10-12T10:59:31.459Z,2.47
2018-10-12T11:01:59.619Z,2.60
2018-10-12T11:04:28.694Z,2.30
2018-10-12T11:06:56.849Z,2.30
2018-10-12T11:09:25.011Z,2.15
2018-10-12T11:11:53.164Z,2.37
2018-10-12T11:14:21.350Z,2.20
2018-10-12T11:16:49.506Z,2.20
2018-10-12T11:19:17.668Z,2.30
2018-10-12T11:21:45.876Z,2.20
2018-10-12T11:24:14.073Z,2.20
2018-10-12T11:26:42.239Z,2.10
2018-10-12T11:29:10.522Z,2.10
2018-10-12T11:31:39.023Z,2.08
2018-10-12T11:34:07.284Z,2.50
2018-10-12T11:36:35.455Z,2.33
2018-10-12T11:39:04.623Z,2.33
2018-10-12T11:41:32.798Z,2.12
2018-10-12T11:44:00.970Z,2.33
2018-10-12T11:46:29.220Z,2.30
2018-10-12T11:48:57.427Z,2.50
2018-10-12T11:51:25.691Z,2.25
2018-10-12T11:53:53.851Z,2.70
2018-10-12T11:56:22.015Z,2.60
2018-10-12T11:58:50.207Z,2.22
2018-10-12T12:01:18.420Z,2.30
2018-10-12T12:03:46.756Z,2.62
2018-10-12T12:06:15.034Z,2.30
2018-10-12T12:08:43.301Z,2.33
2018-10-12T12:11:11.606Z,2.45
2018-10-12T12:13:42.665Z,2.70
2018-10-12T12:16:10.765Z,2.30
2018-10-12T12:18:38.947Z,2.33
2018-10-12T12:21:07.325Z,2.50
2018-10-12T12:23:35.605Z,2.37
2018-10-12T12:26:03.909Z,2.65
2018-10-12T12:28:32.121Z,2.22
2018-10-12T12:31:00.381Z,2.20
2018-10-12T12:33:28.590Z,2.20
2018-10-12T12:35:57.187Z,2.15
2018-10-12T12:38:25.331Z,2.45
2018-10-12T12:40:53.501Z,2.10
2018-10-12T12:43:21.696Z,2.55
2018-10-12T12:45:49.907Z,2.62
2018-10-12T12:48:18.755Z,2.60
2018-10-12T12:50:46.760Z,2.25
2018-10-12T12:53:14.983Z,2.58
2018-10-12T12:55:43.147Z,2.40
2018-10-12T12:58:11.343Z,2.58
2018-10-12T13:00:39.535Z,2.50
2018-10-12T13:03:08.168Z,2.40
2018-10-12T13:05:36.558Z,2.95
2018-10-12T13:08:04.775Z,2.00
2018-10-12T13:10:33.012Z,2.30
2018-10-12T13:13:01.256Z,2.35
2018-10-12T13:15:29.566Z,2.37
2018-10-12T13:17:57.724Z,2.30
2018-10-12T13:20:25.906Z,2.00
2018-10-12T13:22:54.061Z,2.50
2018-10-12T13:25:22.239Z,2.35
2018-10-12T13:27:50.426Z,2.40
2018-10-12T13:30:18.592Z,2.30
2018-10-12T13:32:46.862Z,2.40
2018-10-12T13:35:15.027Z,2.30
2018-10-12T13:37:43.290Z,2.45
2018-10-12T13:40:11.403Z,2.62
2018-10-12T13:42:39.927Z,2.52
2018-10-12T13:45:08.129Z,2.30
2018-10-12T13:47:36.297Z,2.40
2018-10-12T13:50:04.683Z,2.35
2018-10-12T13:52:32.838Z,2.40
2018-10-12T13:55:01.041Z,2.50
2018-10-12T13:57:29.198Z,2.50
2018-10-12T13:59:57.393Z,2.55
2018-10-12T14:02:25.584Z,2.50
2018-10-12T14:04:53.765Z,2.25
2018-10-12T14:07:21.935Z,2.37
2018-10-12T14:09:50.115Z,2.20
2018-10-12T14:12:18.345Z,2.42
2018-10-12T14:14:46.519Z,2.20
2018-10-12T14:17:14.720Z,2.17
2018-10-12T14:19:42.904Z,2.35
2018-10-12T14:22:11.115Z,2.17
2018-10-12T14:24:39.268Z,2.40
2018-10-12T14:27:07.440Z,2.55
2018-10-12T14:29:35.672Z,2.20
2018-10-12T14:32:03.811Z,2.08
2018-10-12T14:34:32.018Z,2.50
2018-10-12T14:37:00.344Z,2.27
2018-10-12T14:39:28.514Z,2.50
2018-10-12T14:41:56.681Z,2.40
2018-10-12T14:44:25.030Z,2.30
2018-10-12T14:46:53.032Z,2.35
2018-10-12T14:49:21.207Z,2.10
2018-10-12T14:51:49.417Z,2.10
